• Join FlightAware (Why Join?)
  • Login
  • US Flag 
03:23PM EDT


 

Airport Tracker/Info


-or-


 

Live Flight TrackerFlight Track Log ✈ ARG1284 ✈ 30-Jun-2013 ✈ SABE / AEP - SCEL / SCL

Flight Track Log - Related Links

Times and Time Zones

All times are in EDT time to prevent confusion due to time zone crossing. See the ARG1284 flight status page for this flight to view local times or setup timezone preferences in your user account.

Time Position Orientation Groundspeed Altitude Reporting Facility
EDT Latitude Longitude Course Direction KTS MPH feet Rate Location/Type
11:11AM -34.5610 -58.3380 63° Northeast 236 272 2,500  Level FlightAware
11:13AM -34.5200 -58.3930 312° West 252 290 10,400 3,060 Climbing FlightAware
11:14AM -34.5410 -58.4450 244° Southwest 261 300 12,500 2,280 Climbing FlightAware
11:14AM -34.5620 -58.4960 243° Southwest 309 356 13,300 2,160 Climbing FlightAware
11:17AM -34.5334 -58.7623 270° West  Level FlightAware Approximate
11:17AM -34.6050 -58.7740 270° West 370 426 19,100  Level FlightAware
11:18AM -34.6010 -58.8620 273° West 377 434 20,800 2,280 Climbing FlightAware
11:18AM -34.5990 -58.9190 272° West 381 438 21,800 1,920 Climbing FlightAware
11:21AM -34.5819 -59.2380 273° West  Level Estimated
11:22AM -34.5475 -59.3626 289° West  Level FlightAware Approximate
11:23AM -34.5129 -59.4870 289° West  Level FlightAware Approximate
11:23AM -34.5670 -59.6310 277° West 386 444 32,200  Level FlightAware
11:24AM -34.5060 -59.6180 277° West  Level Estimated
11:24AM -34.5650 -59.7210 272° West 383 441 33,300  Level FlightAware
11:27AM -34.5461 -60.0310 270° West  Level Estimated
11:28AM -34.5378 -60.1619 274° West  Level Estimated
11:28AM -34.5550 -60.1870 274° West 361 415 38,000  Level FlightAware
11:29AM -34.5520 -60.3050 272° West 362 417 38,000  Level FlightAware
11:32AM -34.5297 -60.6322 276° West  Level Estimated
11:32AM -34.5420 -60.7000 276° West 359 413 38,000  Level FlightAware
11:33AM -34.5390 -60.7810 273° West 357 411 38,000  Level FlightAware
11:34AM -34.5370 -60.8710 272° West 356 410 38,000  Level FlightAware
11:34AM -34.5330 -60.9460 274° West 355 409 38,000  Level FlightAware
11:37AM -34.5096 -61.2290 276° West  Level FlightAware Approximate
11:37AM -34.4800 -61.2920 276° West 356 410 38,000  Level FlightAware
11:38AM -34.4986 -61.3596 276° West  Level FlightAware Approximate
11:38AM -34.4660 -61.3800 281° West 354 407 38,000  Level FlightAware
11:39AM -34.4540 -61.4540 281° West 354 407 38,000  Level FlightAware
11:41AM -34.4358 -61.6781 276° West  Level FlightAware Approximate
11:41AM -34.4160 -61.7130 276° West 354 407 38,000  Level FlightAware
11:42AM -34.4251 -61.8086 276° West  Level FlightAware Approximate
11:42AM -34.4080 -61.7730 279° West 354 407 38,000  Level FlightAware
11:44AM -34.3840 -61.9340 280° West 354 407 38,000  Level FlightAware
11:46AM -34.3642 -62.1818 275° West  Level FlightAware Approximate
11:47AM -34.3535 -62.3122 276° West  Level FlightAware Approximate
11:47AM -34.3320 -62.2950 276° West 354 407 38,000  Level FlightAware
11:48AM -34.3200 -62.3750 280° West 354 407 38,000  Level FlightAware
11:51AM -34.2945 -62.6987 275° West  Level FlightAware Approximate
11:52AM -34.2839 -62.8290 276° West  Level FlightAware Approximate
11:53AM -34.2733 -62.9593 276° West  Level FlightAware Approximate
11:54AM -34.2625 -63.0895 276° West  Level FlightAware Approximate
11:55AM -34.2515 -63.2197 276° West  Level FlightAware Approximate
11:56AM -34.2405 -63.3499 276° West  Level FlightAware Approximate
11:57AM -34.2293 -63.4800 276° West  Level FlightAware Approximate
11:58AM -34.2179 -63.6101 276° West  Level FlightAware Approximate
11:59AM -34.2064 -63.7402 276° West  Level FlightAware Approximate
12:00PM -34.1948 -63.8702 276° West  Level FlightAware Approximate
12:01PM -34.1830 -64.0002 276° West  Level FlightAware Approximate
12:02PM -34.1711 -64.1301 276° West  Level FlightAware Approximate
12:03PM -34.1591 -64.2601 276° West  Level FlightAware Approximate
12:04PM -34.1469 -64.3900 276° West  Level FlightAware Approximate
12:05PM -34.1346 -64.5198 276° West  Level FlightAware Approximate
12:06PM -34.1222 -64.6496 277° West  Level FlightAware Approximate
12:07PM -34.1096 -64.7794 277° West  Level FlightAware Approximate
12:08PM -34.0969 -64.9091 277° West  Level FlightAware Approximate
12:09PM -34.0840 -65.0388 277° West  Level FlightAware Approximate
12:10PM -34.0710 -65.1684 277° West  Level FlightAware Approximate
12:11PM -34.0579 -65.2980 277° West  Level FlightAware Approximate
12:12PM -34.0446 -65.4276 277° West  Level FlightAware Approximate
12:13PM -34.0312 -65.5571 277° West  Level FlightAware Approximate
12:14PM -34.0177 -65.6866 277° West  Level FlightAware Approximate
12:15PM -34.0040 -65.8160 277° West  Level FlightAware Approximate
12:16PM -33.9902 -65.9454 277° West  Level FlightAware Approximate
12:17PM -33.9763 -66.0748 277° West  Level FlightAware Approximate
12:18PM -33.9622 -66.2041 277° West  Level FlightAware Approximate
12:19PM -33.9480 -66.3334 278° West  Level FlightAware Approximate
12:20PM -33.9336 -66.4626 278° West  Level FlightAware Approximate
12:21PM -33.9191 -66.5918 278° West  Level FlightAware Approximate
12:22PM -33.9045 -66.7210 278° West  Level FlightAware Approximate
12:23PM -33.8898 -66.8501 278° West  Level FlightAware Approximate
12:24PM -33.8749 -66.9791 278° West  Level FlightAware Approximate
12:25PM -33.8599 -67.1081 278° West  Level FlightAware Approximate
12:26PM -33.8447 -67.2371 278° West  Level FlightAware Approximate
12:27PM -33.8294 -67.3660 278° West  Level FlightAware Approximate
12:28PM -33.8140 -67.4949 278° West  Level FlightAware Approximate
12:29PM -33.7984 -67.6237 278° West  Level FlightAware Approximate
12:30PM -33.7827 -67.7525 278° West  Level FlightAware Approximate
12:31PM -33.7669 -67.8812 278° West  Level FlightAware Approximate
12:32PM -33.7448 -68.0084 279° West  Level FlightAware Approximate
12:33PM -33.7285 -68.1370 279° West  Level FlightAware Approximate
12:34PM -33.7121 -68.2656 279° West  Level FlightAware Approximate
12:35PM -33.6956 -68.3941 279° West  Level FlightAware Approximate
12:36PM -33.6790 -68.5225 279° West  Level FlightAware Approximate
12:37PM -33.6667 -68.6513 270° West  Level FlightAware Approximate
12:38PM -33.6573 -68.7805 278° West  Level FlightAware Approximate
12:39PM -33.6421 -68.9092 278° West  Level FlightAware Approximate
12:40PM -33.6244 -69.0373 281° West  Level FlightAware Approximate
12:40PM -33.1070 -68.7190 279° West 399 459 38,000  Level FlightAware
12:41PM -33.6032 -69.1646 281° West  Level FlightAware Approximate
12:42PM -33.5823 -69.2920 278° West  Level FlightAware Approximate
12:43PM -33.5669 -69.4205 278° West  Level FlightAware Approximate
12:44PM -33.5514 -69.5490 278° West  Level FlightAware Approximate
12:45PM -33.5358 -69.6774 278° West  Level FlightAware Approximate
12:46PM -33.5201 -69.8058 278° West  Level FlightAware Approximate
12:47PM -33.5000 -69.9333 281° West  Level FlightAware Approximate
12:48PM -33.4797 -70.0606 279° West  Level FlightAware Approximate
12:48PM -32.9090 -69.8090 282° West 422 486 32,000  Level FlightAware
12:49PM -33.4627 -70.1887 279° West  Level FlightAware Approximate
12:49PM -32.8950 -69.8900 282° West 422 486 32,000  Level FlightAware
12:51PM -32.8720 -70.0490 280° West 293 337 25,900 -2,460 Descending FlightAware
12:53PM -33.0120 -70.2455 230° Southwest  Level Estimated
12:54PM -33.0819 -70.3440 230° Southwest  Level Estimated
12:55PM -33.1517 -70.4427 230° Southwest  Level Estimated
12:56PM -33.2214 -70.5415 230° Southwest  Level Estimated
12:57PM -33.2910 -70.6405 230° Southwest  Level Estimated
12:58PM -33.3606 -70.7396 230° Southwest  Level Estimated
12:59PM -33.3930 -70.7858 230° Southwest  Level Estimated
12:59PM -33.1370 -70.7870 333° Northwest 261 300 7,100  Level FlightAware
01:00PM -33.3930 -70.7858 333° Northwest  Level Estimated
01:02PM -33.3660 -70.7859 180° South  Level Estimated